North Brookfield, New York
Current Conditions -  °F | °C
As of 12:53 AM on Saturday 20 Dec 2014 (Local Time) from KRME Reporting Station
Overcast Overcast  
Wind Chill: 21°   Ceiling: 2200
Heat Index: 21°   Visibility: 10mi
Dew Point: 17°   Wind: 3mph
Humidity: 85%   Direction: 350°N
Pressure: 30.25"   Gusts: NA
Location:  42.85°N, 75.39°W
Report Text: KRME 200553Z AUTO 35003KT 10SM OVC022 M06/M08 A3025 RMK AO2 SLP250 T10611083 11039 21061 50004
Loading
Personal Weather Stations






























Interactive Weather Map New forecast layout! Learn more

10-Day Weather Forecast

Advertisements
Track Severe Weather on mobile